Time;durP1;ratioP1;P1;durP2;ratioP2;P2;SDS_P1;SDS_P2;PMS_P1;PMS_P2;Temp;Humidity;BMP_temperature;BMP_pressure;BME280_temperature;BME280_humidity;BME280_pressure;Samples;Min_cycle;Max_cycle;Signal;HPM_P1;HPM_P2
2022/12/23 00:01:34;;;;;;;18.77;6.93;;;9.70;1.00;;;;;;5081357;28;20271;-67
2022/12/23 00:04:01;;;;;;;19.00;6.90;;;9.60;1.00;;;;;;5082700;28;20194;-67
2022/12/23 00:06:28;;;;;;;18.80;7.20;;;9.70;1.00;;;;;;5082164;28;20209;-65
2022/12/23 00:08:58;;;;;;;19.40;7.13;;;9.70;1.00;;;;;;5084905;28;20187;-67
2022/12/23 00:11:27;;;;;;;16.83;6.63;;;9.70;1.00;;;;;;5085487;28;20194;-67
2022/12/23 00:16:47;;;;;;;24.87;8.13;;;9.70;99.90;;;;;;5084821;28;20700;-66
2022/12/23 00:19:15;;;;;;;18.23;7.10;;;9.70;1.00;;;;;;5086856;28;20509;-66
2022/12/23 00:21:41;;;;;;;24.00;8.13;;;9.70;1.00;;;;;;5087122;28;20259;-66
2022/12/23 00:24:10;;;;;;;20.90;8.00;;;9.70;1.00;;;;;;5088597;28;20277;-66
2022/12/23 00:26:37;;;;;;;22.10;7.90;;;9.70;1.00;;;;;;5089075;28;20231;-66
2022/12/23 00:29:04;;;;;;;21.70;9.27;;;9.80;99.90;;;;;;5101520;28;20275;-67
2022/12/23 00:31:31;;;;;;;25.20;10.40;;;9.80;99.90;;;;;;5108644;28;20194;-66
2022/12/23 00:33:58;;;;;;;21.20;9.17;;;9.80;99.90;;;;;;5107958;28;20197;-66
2022/12/23 00:36:27;;;;;;;26.13;9.83;;;9.90;1.00;;;;;;5090260;28;20250;-67
2022/12/23 00:44:27;;;;;;;22.67;9.47;;;9.90;1.00;;;;;;5105799;27;20193;-66
2022/12/23 00:46:54;;;;;;;22.37;10.00;;;9.90;1.00;;;;;;5073658;28;20224;-66
2022/12/23 00:49:42;;;;;;;23.87;10.77;;;9.90;1.00;;;;;;5107988;28;20398;-66
2022/12/23 00:52:12;;;;;;;23.13;10.60;;;9.90;1.00;;;;;;5108251;28;20660;-72
2022/12/23 00:54:39;;;;;;;20.30;9.67;;;9.90;1.00;;;;;;5106496;28;20276;-68
2022/12/23 00:57:06;;;;;;;23.87;9.30;;;9.90;1.00;;;;;;5072287;28;20232;-67
2022/12/23 00:59:33;;;;;;;25.57;10.10;;;9.90;1.00;;;;;;5070704;28;20198;-67
2022/12/23 01:07:32;;;;;;;22.73;8.50;;;10.00;1.00;;;;;;5107603;28;20189;-68
2022/12/23 01:09:59;;;;;;;22.47;8.63;;;9.90;1.00;;;;;;5089473;28;20193;-67
2022/12/23 01:12:26;;;;;;;19.00;8.30;;;10.00;1.00;;;;;;5106533;28;20571;-67
2022/12/23 01:14:53;;;;;;;21.10;9.33;;;10.00;1.00;;;;;;5106591;27;20243;-67
2022/12/23 01:17:20;;;;;;;20.87;8.43;;;10.00;1.00;;;;;;5108650;28;20280;-70
2022/12/23 01:19:47;;;;;;;21.80;8.60;;;10.00;1.00;;;;;;5106847;28;21068;-66
2022/12/23 01:22:14;;;;;;;20.03;8.93;;;10.00;1.00;;;;;;5088236;27;20691;-67
2022/12/23 01:24:41;;;;;;;22.17;9.27;;;10.00;1.00;;;;;;5089012;28;20489;-67
2022/12/23 01:27:08;;;;;;;20.17;8.60;;;10.00;1.00;;;;;;5106525;28;20214;-67
2022/12/23 01:29:35;;;;;;;20.60;8.00;;;10.00;1.00;;;;;;5070063;28;20229;-70
2022/12/23 01:32:02;;;;;;;23.43;8.47;;;10.00;99.90;;;;;;5088005;28;20265;-67
2022/12/23 01:34:29;;;;;;;21.77;8.33;;;10.00;99.90;;;;;;5105209;27;20213;-68
2022/12/23 01:37:02;;;;;;;25.83;9.60;;;10.00;99.90;;;;;;5105265;28;20300;-68
2022/12/23 01:39:29;;;;;;;19.57;8.17;;;10.00;99.90;;;;;;5106086;28;20194;-67
2022/12/23 01:44:53;;;;;;;16.77;9.10;;;10.00;99.90;;;;;;5097662;28;20569;-67
2022/12/23 01:47:44;;;;;;;21.00;9.20;;;10.00;99.90;;;;;;5084383;28;20706;-67
2022/12/23 01:50:22;;;;;;;22.37;11.87;;;10.00;1.00;;;;;;5088523;28;20202;-67
2022/12/23 01:53:13;;;;;;;20.93;11.67;;;10.00;1.00;;;;;;5077650;28;20794;-67
2022/12/23 01:55:59;;;;;;;25.13;12.40;;;10.00;1.00;;;;;;5105867;27;20281;-67
2022/12/23 01:58:33;;;;;;;19.20;9.67;;;10.00;1.00;;;;;;5105691;27;20681;-67
2022/12/23 02:03:48;;;;;;;20.43;9.30;;;10.00;1.00;;;;;;5085563;28;20217;-66
2022/12/23 02:09:24;;;;;;;28.70;10.37;;;10.00;1.00;;;;;;5104886;28;20251;-70
2022/12/23 02:12:03;;;;;;;19.37;11.33;;;10.00;1.00;;;;;;5087382;27;20346;-70
2022/12/23 02:17:56;;;;;;;21.53;11.10;;;10.00;1.00;;;;;;5106365;28;20186;-67
2022/12/23 02:20:48;;;;;;;21.70;12.53;;;10.00;1.00;;;;;;5105971;28;20193;-69
2022/12/23 02:23:18;;;;;;;20.37;11.17;;;10.00;1.00;;;;;;5105113;28;20246;-70
2022/12/23 02:26:03;;;;;;;19.93;11.57;;;10.00;1.00;;;;;;5086881;28;20201;-68
2022/12/23 02:28:38;;;;;;;20.63;11.23;;;10.00;1.00;;;;;;5106718;28;20237;-69
2022/12/23 02:31:15;;;;;;;19.93;11.47;;;10.00;1.00;;;;;;5085502;28;20215;-67
2022/12/23 02:33:47;;;;;;;21.03;10.97;;;10.00;1.00;;;;;;5106268;28;20220;-68
2022/12/23 02:36:19;;;;;;;19.10;12.30;;;10.00;1.00;;;;;;5088045;28;20847;-68
2022/12/23 02:39:02;;;;;;;31.27;12.77;;;10.00;63.60;;;;;;5104746;28;20200;-67
2022/12/23 02:41:50;;;;;;;15.70;11.67;;;10.00;99.90;;;;;;5105825;27;20211;-68
2022/12/23 02:44:26;;;;;;;19.97;12.57;;;10.00;99.90;;;;;;5104505;28;20368;-66
2022/12/23 02:47:25;;;;;;;24.87;12.93;;;10.00;99.90;;;;;;5087478;28;20205;-69
2022/12/23 02:49:56;;;;;;;18.73;13.60;;;10.00;99.90;;;;;;5084374;28;20641;-69
2022/12/23 02:52:28;;;;;;;22.87;13.90;;;10.00;99.90;;;;;;5103270;28;20201;-69
2022/12/23 02:55:04;;;;;;;23.50;15.00;;;9.90;99.90;;;;;;5106667;28;20206;-71
2022/12/23 02:57:39;;;;;;;22.13;13.43;;;10.00;99.90;;;;;;5097613;28;20282;-70
2022/12/23 03:00:06;;;;;;;20.17;13.77;;;10.00;1.00;;;;;;5095011;28;20280;-68
2022/12/23 03:02:36;;;;;;;20.47;14.67;;;10.00;1.00;;;;;;5086971;28;20692;-67
2022/12/23 03:05:04;;;;;;;24.10;16.03;;;9.90;1.00;;;;;;5103431;27;20247;-66
2022/12/23 03:07:40;;;;;;;26.77;15.53;;;9.90;1.00;;;;;;5087248;28;20207;-69
2022/12/23 03:10:12;;;;;;;20.43;15.70;;;9.90;1.00;;;;;;5104329;28;20690;-69
2022/12/23 03:12:59;;;;;;;21.93;15.63;;;10.00;1.00;;;;;;5105948;28;20238;-69
2022/12/23 03:15:35;;;;;;;23.03;16.20;;;9.90;1.00;;;;;;5104808;28;20756;-68
2022/12/23 03:18:17;;;;;;;21.10;15.77;;;9.90;56.40;;;;;;5079233;28;20691;-67
2022/12/23 03:20:53;;;;;;;25.63;16.47;;;9.90;99.90;;;;;;5105369;28;20199;-68
2022/12/23 03:23:31;;;;;;;19.57;16.03;;;9.90;99.90;;;;;;5104873;28;20201;-68
2022/12/23 03:26:17;;;;;;;23.73;16.50;;;9.90;99.90;;;;;;5104522;28;20250;-67
2022/12/23 03:28:57;;;;;;;23.60;16.97;;;9.90;99.90;;;;;;5105764;28;20774;-67
2022/12/23 03:31:28;;;;;;;26.47;18.10;;;9.90;99.90;;;;;;5104222;28;20190;-65
2022/12/23 03:34:04;;;;;;;24.13;18.20;;;9.90;99.90;;;;;;5079920;28;20212;-67
2022/12/23 03:36:37;;;;;;;27.63;18.70;;;9.90;99.90;;;;;;5078624;28;20675;-67
2022/12/23 03:39:08;;;;;;;30.43;20.20;;;9.90;99.90;;;;;;5087317;28;20178;-67
2022/12/23 03:41:41;;;;;;;28.30;20.77;;;9.90;99.90;;;;;;5094703;28;20248;-68
2022/12/23 03:44:17;;;;;;;30.77;21.17;;;9.90;99.90;;;;;;5103539;28;20325;-67
2022/12/23 03:46:54;;;;;;;31.37;21.93;;;9.90;1.00;;;;;;5100676;28;20201;-67
2022/12/23 03:49:31;;;;;;;29.90;22.97;;;9.90;1.00;;;;;;5109355;28;20269;-67
2022/12/23 03:52:05;;;;;;;34.13;23.53;;;9.90;1.00;;;;;;5108027;28;20204;-68
2022/12/23 03:54:44;;;;;;;38.50;25.90;;;9.90;1.00;;;;;;5108742;28;20266;-68
2022/12/23 03:57:13;;;;;;;37.97;24.40;;;9.90;1.00;;;;;;5090814;28;20759;-67
2022/12/23 03:59:44;;;;;;;38.33;24.83;;;9.90;1.00;;;;;;5090153;27;20384;-67
2022/12/23 04:02:26;;;;;;;35.00;24.23;;;9.90;1.00;;;;;;5090657;28;20217;-67
2022/12/23 04:04:54;;;;;;;36.13;26.87;;;9.90;1.00;;;;;;5107784;28;20225;-67
2022/12/23 04:07:31;;;;;;;41.43;25.10;;;9.90;1.00;;;;;;5108952;28;20620;-67
2022/12/23 04:09:58;;;;;;;34.80;25.43;;;9.90;1.00;;;;;;5090750;28;20215;-67
2022/12/23 04:12:26;;;;;;;39.00;27.87;;;9.90;1.00;;;;;;5083124;27;20205;-69
2022/12/23 04:14:53;;;;;;;37.03;26.60;;;9.90;1.00;;;;;;5108868;27;20205;-66
2022/12/23 04:17:20;;;;;;;39.47;29.40;;;9.90;1.00;;;;;;5109993;28;20275;-66
2022/12/23 04:19:47;;;;;;;34.73;25.67;;;9.90;1.00;;;;;;5109016;28;20193;-68
2022/12/23 04:22:15;;;;;;;38.20;26.83;;;9.90;1.00;;;;;;5090091;27;20198;-67
2022/12/23 04:24:42;;;;;;;35.30;26.43;;;9.90;1.00;;;;;;5109623;27;20197;-66
2022/12/23 04:27:13;;;;;;;38.10;26.57;;;9.90;1.00;;;;;;5091722;28;20611;-67
2022/12/23 04:29:40;;;;;;;35.03;25.50;;;9.90;1.00;;;;;;5108145;28;20233;-67
2022/12/23 04:32:08;;;;;;;40.20;24.93;;;9.90;1.00;;;;;;5091510;28;20665;-68
2022/12/23 04:34:35;;;;;;;35.70;24.77;;;9.90;1.00;;;;;;5108427;27;20206;-67
2022/12/23 04:37:02;;;;;;;33.03;23.60;;;9.90;1.00;;;;;;5090160;28;20228;-68
2022/12/23 04:39:29;;;;;;;35.70;24.23;;;9.90;1.00;;;;;;5106862;27;20216;-68
2022/12/23 04:41:56;;;;;;;42.70;24.03;;;9.90;1.00;;;;;;5089568;28;20193;-68
2022/12/23 04:44:23;;;;;;;42.13;24.60;;;9.90;1.00;;;;;;5108583;27;20232;-66
2022/12/23 04:46:50;;;;;;;35.00;24.90;;;9.90;1.00;;;;;;5107814;28;20229;-69
2022/12/23 04:49:17;;;;;;;37.70;24.43;;;9.90;99.90;;;;;;5090201;28;20219;-69
2022/12/23 04:51:44;;;;;;;36.67;25.43;;;9.90;22.00;;;;;;5109623;28;20740;-68
2022/12/23 04:54:11;;;;;;;37.13;24.13;;;9.90;1.90;;;;;;5107210;28;20205;-69
2022/12/23 04:56:38;;;;;;;36.83;25.30;;;9.90;40.20;;;;;;5106250;27;20292;-68
2022/12/23 04:59:05;;;;;;;34.50;24.20;;;9.90;86.80;;;;;;5105460;28;20197;-68
2022/12/23 05:01:32;;;;;;;38.33;25.57;;;9.90;99.90;;;;;;5105798;27;20217;-67
2022/12/23 05:03:59;;;;;;;36.00;25.13;;;9.80;99.90;;;;;;5108962;27;20221;-67
2022/12/23 05:06:26;;;;;;;40.67;26.73;;;9.80;99.90;;;;;;5105481;28;20189;-68
2022/12/23 05:08:53;;;;;;;35.23;23.67;;;9.80;99.90;;;;;;5108986;27;20236;-68
2022/12/23 05:11:20;;;;;;;35.90;23.67;;;9.80;99.90;;;;;;5107726;28;20192;-68
2022/12/23 05:13:47;;;;;;;37.03;23.57;;;9.90;99.90;;;;;;5106652;28;20229;-68
2022/12/23 05:16:14;;;;;;;31.77;23.57;;;9.80;99.90;;;;;;5108570;27;20640;-67
2022/12/23 05:18:41;;;;;;;35.13;23.87;;;9.80;1.00;;;;;;5107766;27;20815;-67
2022/12/23 05:21:08;;;;;;;33.27;22.77;;;9.90;1.00;;;;;;5088971;28;20185;-67
2022/12/23 05:23:36;;;;;;;36.97;24.67;;;9.80;1.00;;;;;;5089764;28;20193;-67
2022/12/23 05:26:03;;;;;;;42.43;27.60;;;9.80;1.00;;;;;;5089370;28;20205;-69
2022/12/23 05:28:31;;;;;;;47.47;30.50;;;9.80;1.00;;;;;;5106329;27;20237;-67
2022/12/23 05:31:03;;;;;;;53.90;33.03;;;9.80;99.30;;;;;;5103023;28;20677;-67
2022/12/23 05:33:31;;;;;;;56.83;34.03;;;9.80;99.90;;;;;;5107263;28;20194;-68
2022/12/23 05:35:58;;;;;;;50.97;32.60;;;9.80;99.90;;;;;;5107706;27;21007;-67
2022/12/23 05:38:27;;;;;;;59.80;35.87;;;9.90;99.90;;;;;;5104898;27;20344;-68
2022/12/23 05:40:53;;;;;;;54.60;33.70;;;9.80;1.00;;;;;;5107701;28;20213;-68
2022/12/23 05:43:21;;;;;;;53.27;32.30;;;9.80;1.00;;;;;;5105518;28;20194;-68
2022/12/23 05:45:49;;;;;;;50.27;31.53;;;9.80;1.00;;;;;;5108028;27;20193;-69
2022/12/23 05:48:16;;;;;;;51.63;33.30;;;9.80;1.00;;;;;;5105582;27;20228;-67
2022/12/23 05:50:43;;;;;;;49.40;32.07;;;9.80;1.00;;;;;;5102406;27;20224;-65
2022/12/23 05:53:10;;;;;;;44.50;29.20;;;9.80;1.00;;;;;;5086075;28;20300;-66
2022/12/23 05:55:37;;;;;;;48.47;28.33;;;9.80;1.00;;;;;;5103892;28;20202;-67
2022/12/23 05:58:04;;;;;;;38.17;23.97;;;9.80;12.20;;;;;;5087316;28;20236;-67
2022/12/23 06:00:31;;;;;;;37.20;22.17;;;9.80;61.40;;;;;;5070316;28;20197;-67
2022/12/23 06:02:58;;;;;;;32.97;21.83;;;9.80;96.80;;;;;;5088680;28;20631;-65
2022/12/23 06:05:26;;;;;;;28.83;20.80;;;9.80;99.90;;;;;;5087462;28;20739;-66
2022/12/23 06:07:52;;;;;;;33.47;21.97;;;9.80;90.60;;;;;;5103777;28;20290;-67
2022/12/23 06:10:19;;;;;;;35.20;20.43;;;9.80;93.60;;;;;;5085758;27;20752;-66
2022/12/23 06:12:46;;;;;;;35.23;22.07;;;9.80;96.40;;;;;;5106921;27;20201;-67
2022/12/23 06:15:14;;;;;;;36.43;23.07;;;9.80;83.30;;;;;;5087719;28;20652;-66
2022/12/23 06:17:41;;;;;;;35.53;24.30;;;9.80;58.90;;;;;;5088225;28;20840;-66
2022/12/23 06:20:09;;;;;;;36.03;24.63;;;9.80;67.40;;;;;;5089162;28;20194;-65
2022/12/23 06:22:45;;;;;;;42.70;25.17;;;9.80;23.10;;;;;;5104107;27;20189;-65
2022/12/23 06:25:12;;;;;;;44.57;26.33;;;9.80;22.50;;;;;;5087128;28;20292;-66
2022/12/23 06:27:39;;;;;;;43.37;26.63;;;9.80;1.00;;;;;;5105746;28;20197;-66
2022/12/23 06:30:07;;;;;;;44.27;25.97;;;9.80;1.00;;;;;;5087356;28;20690;-65
2022/12/23 06:32:34;;;;;;;41.23;25.77;;;9.80;99.90;;;;;;5086600;28;20201;-66
2022/12/23 06:35:08;;;;;;;42.70;26.63;;;9.80;99.90;;;;;;5087814;28;20216;-68
2022/12/23 06:37:35;;;;;;;40.70;26.40;;;9.80;1.00;;;;;;5088232;27;20199;-68
2022/12/23 06:40:02;;;;;;;46.03;26.27;;;9.80;1.00;;;;;;5087692;28;20197;-67
2022/12/23 06:42:29;;;;;;;45.23;27.40;;;9.80;1.00;;;;;;5069310;28;20203;-68
2022/12/23 06:44:56;;;;;;;43.50;25.50;;;9.80;1.00;;;;;;5086430;28;20240;-68
2022/12/23 06:47:23;;;;;;;39.73;25.90;;;9.80;1.00;;;;;;5081222;27;20204;-66
2022/12/23 06:49:50;;;;;;;43.33;25.47;;;9.80;1.00;;;;;;5080132;28;20285;-69
2022/12/23 06:52:17;;;;;;;42.20;24.83;;;9.80;99.90;;;;;;5102626;28;20221;-69
2022/12/23 06:54:44;;;;;;;43.97;24.70;;;9.80;99.90;;;;;;5105560;28;20193;-68
2022/12/23 06:57:11;;;;;;;41.77;23.57;;;9.80;99.90;;;;;;5106315;28;20307;-69
2022/12/23 06:59:40;;;;;;;36.63;22.47;;;9.80;98.30;;;;;;5105448;28;20276;-67
2022/12/23 07:02:10;;;;;;;35.63;22.43;;;9.80;29.60;;;;;;5104584;28;20281;-66
2022/12/23 07:04:37;;;;;;;40.63;22.57;;;9.80;11.00;;;;;;5080332;28;20194;-66
2022/12/23 07:07:04;;;;;;;37.07;22.73;;;9.80;1.00;;;;;;5103102;28;20273;-66
2022/12/23 07:09:31;;;;;;;35.53;20.60;;;9.80;1.00;;;;;;5105659;28;20681;-66
2022/12/23 07:11:58;;;;;;;33.93;20.20;;;9.80;1.00;;;;;;5104562;28;20203;-65
2022/12/23 07:14:25;;;;;;;34.63;20.57;;;9.80;1.00;;;;;;5104403;28;20281;-66
2022/12/23 07:16:52;;;;;;;30.47;19.40;;;9.80;1.00;;;;;;5088663;28;20585;-67
2022/12/23 07:19:20;;;;;;;32.53;19.37;;;9.80;1.00;;;;;;5088513;28;20454;-66
2022/12/23 07:21:46;;;;;;;30.50;19.17;;;9.80;1.00;;;;;;5104256;28;20190;-67
2022/12/23 07:24:13;;;;;;;27.97;18.07;;;9.80;1.00;;;;;;5106417;27;20689;-67
2022/12/23 07:26:43;;;;;;;32.97;18.90;;;9.80;1.00;;;;;;5088254;28;20278;-66
2022/12/23 07:29:10;;;;;;;27.70;18.27;;;9.80;1.00;;;;;;5104044;28;20235;-66
2022/12/23 07:31:38;;;;;;;26.70;16.80;;;9.80;11.80;;;;;;5104260;28;20200;-66
2022/12/23 07:34:07;;;;;;;50.43;44.17;;;9.80;28.60;;;;;;5083662;28;20316;-67
2022/12/23 07:36:34;;;;;;;68.27;47.77;;;9.80;65.00;;;;;;5079761;28;20285;-66
2022/12/23 07:39:01;;;;;;;33.90;25.10;;;9.80;72.20;;;;;;5085587;28;20304;-67
2022/12/23 07:41:28;;;;;;;31.23;19.47;;;9.80;63.50;;;;;;5105656;28;20190;-68
2022/12/23 07:44:01;;;;;;;35.83;20.03;;;9.80;71.70;;;;;;5080189;28;20542;-65
2022/12/23 07:46:29;;;;;;;32.37;19.90;;;9.80;99.90;;;;;;5094971;28;20538;-67
2022/12/23 07:48:56;;;;;;;35.37;21.43;;;9.80;99.90;;;;;;5087994;28;20192;-67
2022/12/23 07:51:24;;;;;;;36.10;21.37;;;9.80;99.90;;;;;;5103440;28;20229;-65
2022/12/23 07:53:51;;;;;;;36.27;21.33;;;9.80;99.90;;;;;;5103082;28;20678;-66
2022/12/23 07:56:18;;;;;;;33.63;22.13;;;9.80;99.90;;;;;;5107201;28;20243;-67
2022/12/23 07:58:48;;;;;;;37.60;23.13;;;9.80;99.90;;;;;;5106358;28;20680;-66
2022/12/23 08:01:17;;;;;;;37.93;22.50;;;9.80;99.90;;;;;;5101032;28;20393;-66
2022/12/23 08:03:44;;;;;;;38.93;24.50;;;9.80;99.90;;;;;;5101329;28;20704;-67
2022/12/23 08:06:14;;;;;;;35.30;24.03;;;9.80;1.00;;;;;;5106060;28;20675;-66
2022/12/23 08:08:43;;;;;;;38.80;23.63;;;9.80;1.00;;;;;;5086007;28;20246;-66
2022/12/23 08:11:12;;;;;;;37.57;23.97;;;9.80;1.00;;;;;;5103552;28;20221;-66
2022/12/23 08:13:41;;;;;;;37.13;23.97;;;9.80;1.00;;;;;;5102846;28;20737;-67
2022/12/23 08:16:09;;;;;;;39.23;24.80;;;9.80;1.00;;;;;;5097197;28;20221;-66
2022/12/23 08:18:38;;;;;;;41.33;24.40;;;9.80;1.00;;;;;;5106930;28;20310;-66
2022/12/23 08:21:16;;;;;;;44.97;26.00;;;9.80;1.00;;;;;;5104895;28;20198;-67
2022/12/23 08:23:45;;;;;;;46.93;27.20;;;9.80;1.00;;;;;;5102469;28;20198;-66
2022/12/23 08:26:19;;;;;;;45.00;26.87;;;9.80;1.00;;;;;;5106463;28;20273;-66
2022/12/23 08:28:47;;;;;;;44.77;27.63;;;9.90;1.00;;;;;;5101949;28;20312;-67
2022/12/23 08:31:15;;;;;;;45.73;25.53;;;9.80;1.00;;;;;;5078937;28;20250;-67
2022/12/23 08:33:45;;;;;;;43.27;25.37;;;9.80;1.00;;;;;;5090716;28;20225;-66
2022/12/23 08:36:15;;;;;;;41.63;25.03;;;9.80;13.00;;;;;;5107101;28;20292;-64
2022/12/23 08:38:50;;;;;;;44.43;25.63;;;9.80;14.90;;;;;;5110721;28;20201;-67
2022/12/23 08:41:25;;;;;;;40.73;25.43;;;9.90;57.70;;;;;;5109030;27;20582;-67
2022/12/23 08:43:52;;;;;;;35.20;21.40;;;9.80;99.30;;;;;;5082167;28;21273;-66
2022/12/23 08:46:20;;;;;;;51.00;31.60;;;9.80;66.00;;;;;;5108944;27;20653;-67
2022/12/23 08:48:47;;;;;;;47.67;27.80;;;9.80;99.90;;;;;;5110200;28;20660;-66
2022/12/23 08:51:17;;;;;;;39.67;23.37;;;9.80;99.90;;;;;;5089362;28;20259;-67
2022/12/23 08:53:45;;;;;;;38.43;23.93;;;9.80;99.90;;;;;;5091587;28;20558;-69
2022/12/23 08:56:19;;;;;;;29.93;18.80;;;9.80;99.90;;;;;;5081926;28;20696;-65
2022/12/23 08:58:48;;;;;;;34.73;22.63;;;9.80;99.90;;;;;;5090995;27;21012;-66
2022/12/23 09:01:17;;;;;;;31.20;19.30;;;9.80;99.90;;;;;;5109678;27;20677;-69
2022/12/23 09:03:45;;;;;;;38.57;21.93;;;9.80;99.90;;;;;;5107706;27;20726;-66
2022/12/23 09:06:20;;;;;;;35.57;22.10;;;9.80;99.90;;;;;;5107177;28;20186;-67
2022/12/23 09:08:55;;;;;;;34.97;20.90;;;9.80;99.90;;;;;;5107887;28;20801;-66
2022/12/23 09:11:24;;;;;;;35.77;22.40;;;9.80;99.90;;;;;;5108630;28;20193;-67
2022/12/23 09:13:51;;;;;;;34.20;20.57;;;9.80;73.00;;;;;;5078858;28;20277;-66
2022/12/23 09:16:19;;;;;;;32.37;20.77;;;9.80;27.60;;;;;;5107196;27;20235;-67
2022/12/23 09:18:46;;;;;;;28.53;17.20;;;9.80;11.10;;;;;;5109392;28;20190;-67
2022/12/23 09:21:17;;;;;;;25.20;15.50;;;9.80;36.30;;;;;;5106782;27;20668;-67
2022/12/23 09:23:44;;;;;;;26.20;14.53;;;9.70;1.00;;;;;;5065270;28;20200;-67
2022/12/23 09:26:17;;;;;;;30.47;18.83;;;9.70;1.00;;;;;;5108362;27;20193;-65
2022/12/23 09:28:44;;;;;;;32.73;21.93;;;9.70;1.00;;;;;;5106045;28;20324;-66
2022/12/23 09:31:12;;;;;;;45.90;25.97;;;9.70;1.00;;;;;;5109207;28;20197;-67
2022/12/23 09:33:39;;;;;;;59.37;30.40;;;9.70;1.00;;;;;;5106712;28;20205;-67
2022/12/23 09:36:06;;;;;;;34.77;21.07;;;9.70;1.00;;;;;;5089183;28;20209;-66
2022/12/23 09:38:33;;;;;;;37.40;22.57;;;9.80;1.00;;;;;;5090622;28;20316;-67
2022/12/23 09:41:28;;;;;;;42.67;25.67;;;9.80;1.00;;;;;;5108536;27;20217;-66
2022/12/23 09:44:14;;;;;;;42.83;24.23;;;9.80;1.00;;;;;;5108867;27;20221;-69
2022/12/23 09:46:47;;;;;;;44.07;25.37;;;9.80;1.00;;;;;;5109146;28;20253;-67
2022/12/23 09:49:17;;;;;;;42.80;23.70;;;9.80;1.00;;;;;;5107469;27;20441;-67
2022/12/23 09:51:46;;;;;;;44.10;24.33;;;9.80;1.00;;;;;;5082274;28;20280;-67
2022/12/23 09:54:24;;;;;;;40.13;23.30;;;9.90;1.00;;;;;;5083502;28;20248;-66
2022/12/23 09:56:54;;;;;;;40.70;23.47;;;9.80;99.90;;;;;;5106070;27;20250;-67
2022/12/23 09:59:28;;;;;;;41.00;23.73;;;9.80;1.00;;;;;;5090175;28;20701;-67
2022/12/23 10:02:02;;;;;;;46.33;23.73;;;9.80;1.00;;;;;;5105708;28;20670;-67
2022/12/23 10:04:29;;;;;;;43.30;22.63;;;9.80;1.00;;;;;;5088567;28;20726;-67
2022/12/23 10:07:21;;;;;;;47.43;24.40;;;9.80;1.00;;;;;;5106930;27;20280;-66
2022/12/23 10:09:51;;;;;;;45.43;24.17;;;9.80;1.00;;;;;;5090591;28;20284;-67
2022/12/23 10:12:30;;;;;;;48.60;26.80;;;9.80;1.00;;;;;;5105190;27;20193;-66
2022/12/23 10:15:36;;;;;;;51.83;23.93;;;9.80;1.00;;;;;;5108531;27;20210;-67
2022/12/23 10:18:31;;;;;;;54.97;23.20;;;9.80;99.90;;;;;;5102629;28;20270;-66
2022/12/23 10:21:04;;;;;;;50.27;26.17;;;9.80;1.00;;;;;;5104256;28;20756;-67
2022/12/23 10:23:39;;;;;;;49.67;26.30;;;9.70;1.00;;;;;;5108695;28;20683;-67
2022/12/23 10:26:40;;;;;;;50.73;25.97;;;9.70;1.00;;;;;;5087918;28;20236;-68
2022/12/23 10:29:28;;;;;;;51.23;24.97;;;9.80;99.90;;;;;;5106440;28;20288;-67
2022/12/23 10:32:14;;;;;;;56.93;25.13;;;9.80;99.90;;;;;;5087990;28;20209;-67
2022/12/23 10:34:49;;;;;;;42.53;23.60;;;9.80;1.00;;;;;;5106403;27;20251;-67
2022/12/23 10:37:21;;;;;;;40.30;22.50;;;9.80;1.00;;;;;;5103486;27;20285;-67
2022/12/23 10:40:06;;;;;;;45.30;24.50;;;9.80;1.00;;;;;;5106976;27;20265;-67
2022/12/23 10:42:40;;;;;;;41.20;23.00;;;9.80;99.90;;;;;;5086261;28;20711;-66
2022/12/23 10:45:22;;;;;;;51.03;23.47;;;9.80;99.90;;;;;;5088087;27;20246;-67
2022/12/23 10:48:21;;;;;;;40.47;20.47;;;9.90;99.90;;;;;;5107420;28;20284;-67
2022/12/23 10:51:02;;;;;;;37.53;21.70;;;9.90;1.00;;;;;;5072083;28;20216;-67
2022/12/23 10:53:29;;;;;;;38.30;21.20;;;9.90;1.00;;;;;;5089864;28;20585;-67
2022/12/23 10:55:57;;;;;;;43.77;21.50;;;10.00;1.00;;;;;;5079786;28;20288;-68
2022/12/23 10:58:25;;;;;;;40.10;22.13;;;10.00;52.20;;;;;;5089315;28;20770;-67
2022/12/23 11:00:58;;;;;;;39.07;22.03;;;10.00;27.80;;;;;;5106335;27;20224;-67
2022/12/23 11:03:32;;;;;;;39.23;21.00;;;10.00;1.00;;;;;;5106595;28;20690;-67
2022/12/23 11:06:00;;;;;;;38.00;21.47;;;10.10;1.00;;;;;;5104728;28;20201;-67
2022/12/23 11:08:30;;;;;;;36.37;20.53;;;10.10;1.00;;;;;;5087790;28;20190;-67
2022/12/23 11:10:59;;;;;;;29.53;19.10;;;10.10;1.00;;;;;;5106241;27;20720;-67
2022/12/23 11:13:38;;;;;;;33.63;18.90;;;10.10;1.00;;;;;;5087888;28;20204;-66
2022/12/23 11:16:21;;;;;;;31.73;19.07;;;10.10;1.00;;;;;;5067918;28;20224;-67
2022/12/23 11:19:12;;;;;;;32.17;19.20;;;10.10;1.00;;;;;;5082209;28;20262;-67
2022/12/23 11:22:01;;;;;;;28.33;18.40;;;10.10;1.00;;;;;;5087278;28;20221;-67
2022/12/23 11:24:33;;;;;;;27.47;17.77;;;10.10;1.00;;;;;;5087410;28;20189;-67
2022/12/23 11:27:14;;;;;;;26.27;18.20;;;10.20;1.00;;;;;;5103456;28;20273;-67
2022/12/23 11:29:52;;;;;;;23.87;16.33;;;10.20;1.00;;;;;;5055136;28;20225;-67
2022/12/23 11:32:23;;;;;;;27.20;17.97;;;10.20;1.00;;;;;;5083938;28;20471;-67
2022/12/23 11:34:52;;;;;;;23.00;15.57;;;10.30;1.00;;;;;;5071124;28;20205;-67
2022/12/23 11:37:40;;;;;;;29.33;16.93;;;10.30;1.00;;;;;;5081475;28;20198;-67
2022/12/23 11:40:31;;;;;;;26.10;16.70;;;10.20;1.00;;;;;;5073918;28;20195;-68
2022/12/23 11:43:01;;;;;;;26.27;16.87;;;10.10;1.00;;;;;;5083715;28;20194;-69
2022/12/23 11:45:33;;;;;;;28.00;18.67;;;10.00;1.00;;;;;;5084007;28;20708;-69
2022/12/23 11:48:03;;;;;;;25.60;19.13;;;9.90;1.00;;;;;;5086102;28;20271;-69
2022/12/23 11:50:33;;;;;;;29.03;18.90;;;9.90;1.00;;;;;;5085661;28;20218;-68
2022/12/23 11:53:24;;;;;;;31.10;20.67;;;9.90;1.00;;;;;;5084016;28;20204;-69
2022/12/23 11:56:03;;;;;;;34.03;20.13;;;10.00;1.00;;;;;;5077341;28;20230;-68
2022/12/23 11:58:53;;;;;;;27.50;18.63;;;10.00;1.00;;;;;;5084476;28;20189;-69
2022/12/23 12:01:24;;;;;;;29.73;19.03;;;10.00;1.00;;;;;;5067096;28;20286;-69
2022/12/23 12:04:00;;;;;;;25.17;17.57;;;10.00;1.00;;;;;;5091224;28;20225;-69
2022/12/23 12:06:29;;;;;;;28.00;16.87;;;10.10;99.90;;;;;;5102751;28;20651;-69
2022/12/23 12:08:59;;;;;;;25.40;16.87;;;10.20;99.90;;;;;;5088529;28;20827;-71
2022/12/23 12:11:43;;;;;;;25.07;16.40;;;10.20;99.90;;;;;;5069898;28;20609;-68
2022/12/23 12:14:27;;;;;;;26.83;17.90;;;10.20;99.90;;;;;;5090018;28;20193;-69
2022/12/23 12:17:16;;;;;;;28.60;17.27;;;10.10;99.90;;;;;;5087609;28;20210;-71
2022/12/23 12:19:46;;;;;;;23.90;16.33;;;10.10;99.90;;;;;;5071904;28;20455;-71
2022/12/23 12:22:43;;;;;;;28.63;17.17;;;10.00;99.90;;;;;;5087499;28;20279;-69
2022/12/23 12:25:19;;;;;;;29.50;17.43;;;10.00;99.90;;;;;;5058128;28;20194;-69
2022/12/23 12:27:54;;;;;;;21.97;16.90;;;10.00;99.90;;;;;;5090491;28;20262;-69
2022/12/23 12:30:21;;;;;;;28.20;17.43;;;10.00;99.90;;;;;;5109106;28;20268;-69
2022/12/23 12:33:12;;;;;;;27.53;17.40;;;10.00;99.90;;;;;;5108388;28;20215;-68
2022/12/23 12:35:50;;;;;;;24.40;16.23;;;9.90;99.90;;;;;;5109622;28;20197;-68
2022/12/23 12:38:31;;;;;;;27.60;18.03;;;9.90;99.90;;;;;;5079169;28;20805;-69
2022/12/23 12:41:28;;;;;;;28.20;17.03;;;9.90;99.90;;;;;;5105694;27;20201;-69
2022/12/23 12:44:14;;;;;;;25.00;16.90;;;9.90;99.90;;;;;;5066779;28;20928;-70
2022/12/23 12:47:00;;;;;;;23.73;15.70;;;9.90;99.90;;;;;;5107534;28;20194;-69
2022/12/23 12:49:52;;;;;;;20.63;14.77;;;9.90;99.90;;;;;;5108527;27;20666;-69
2022/12/23 12:52:22;;;;;;;23.30;14.97;;;9.90;99.90;;;;;;5088963;28;20208;-70
2022/12/23 12:55:02;;;;;;;19.03;14.10;;;9.90;99.90;;;;;;5107647;28;20228;-70
2022/12/23 12:57:32;;;;;;;18.73;14.30;;;9.90;99.90;;;;;;5089530;28;20245;-70
2022/12/23 12:59:59;;;;;;;22.00;14.70;;;9.90;99.90;;;;;;5101658;28;20626;-69
2022/12/23 13:02:53;;;;;;;20.30;13.90;;;9.90;1.00;;;;;;5087104;27;20787;-69
2022/12/23 13:05:41;;;;;;;20.90;14.37;;;9.90;1.00;;;;;;5072900;28;20239;-68
2022/12/23 13:08:38;;;;;;;21.57;13.47;;;9.90;1.00;;;;;;5086972;28;20247;-70
2022/12/23 13:11:15;;;;;;;17.40;12.83;;;9.90;1.00;;;;;;5106598;27;20732;-70
2022/12/23 13:13:48;;;;;;;21.33;15.03;;;9.80;1.00;;;;;;5109279;27;20273;-69
2022/12/23 13:16:27;;;;;;;19.07;13.33;;;9.80;1.00;;;;;;5109193;27;20205;-68
2022/12/23 13:19:17;;;;;;;21.17;13.50;;;9.80;1.00;;;;;;5109373;28;20190;-69
2022/12/23 13:22:03;;;;;;;19.67;13.60;;;9.80;1.00;;;;;;5098977;28;20273;-70
2022/12/23 13:24:51;;;;;;;20.70;14.70;;;9.70;1.00;;;;;;5074485;28;20397;-70
2022/12/23 13:27:34;;;;;;;22.53;15.97;;;9.60;95.60;;;;;;5090508;28;20209;-69
2022/12/23 13:30:19;;;;;;;21.27;15.10;;;9.60;99.90;;;;;;5074704;28;20282;-69
2022/12/23 13:32:54;;;;;;;27.43;15.57;;;9.60;1.00;;;;;;5108155;27;20236;-70
2022/12/23 13:35:43;;;;;;;25.20;17.03;;;9.50;1.00;;;;;;5083202;28;20190;-69